sensor_id;sensor_type;location;lat;lon;timestamp;pressure;altitude;pressure_sealevel;temperature;humidity
77106;BME280;66057;54.718;18.426;2023-06-05T00:02:01;102174.41;;;8.94;90.01
77106;BME280;66057;54.718;18.426;2023-06-05T00:04:27;102175.44;;;8.96;90.42
77106;BME280;66057;54.718;18.426;2023-06-05T00:06:57;102170.97;;;8.93;90.39
77106;BME280;66057;54.718;18.426;2023-06-05T00:09:26;102165.50;;;8.89;90.88
77106;BME280;66057;54.718;18.426;2023-06-05T00:11:52;102168.84;;;8.88;90.65
77106;BME280;66057;54.718;18.426;2023-06-05T00:14:18;102170.91;;;8.80;90.70
77106;BME280;66057;54.718;18.426;2023-06-05T00:16:47;102172.63;;;8.68;90.84
77106;BME280;66057;54.718;18.426;2023-06-05T00:19:15;102179.09;;;8.63;90.85
77106;BME280;66057;54.718;18.426;2023-06-05T00:21:45;102178.28;;;8.64;90.72
77106;BME280;66057;54.718;18.426;2023-06-05T00:24:11;102176.53;;;8.63;90.39
77106;BME280;66057;54.718;18.426;2023-06-05T00:26:37;102165.38;;;8.62;90.49
77106;BME280;66057;54.718;18.426;2023-06-05T00:29:03;102170.72;;;8.65;90.18
77106;BME280;66057;54.718;18.426;2023-06-05T00:31:28;102174.28;;;8.67;90.16
77106;BME280;66057;54.718;18.426;2023-06-05T00:33:54;102178.75;;;8.58;90.45
77106;BME280;66057;54.718;18.426;2023-06-05T00:36:20;102172.28;;;8.40;90.90
77106;BME280;66057;54.718;18.426;2023-06-05T00:38:49;102173.38;;;8.20;91.12
77106;BME280;66057;54.718;18.426;2023-06-05T00:41:16;102178.38;;;7.84;90.54
77106;BME280;66057;54.718;18.426;2023-06-05T00:43:42;102177.00;;;7.66;90.61
77106;BME280;66057;54.718;18.426;2023-06-05T00:46:09;102182.41;;;7.47;89.94
77106;BME280;66057;54.718;18.426;2023-06-05T00:48:37;102179.25;;;7.39;89.20
77106;BME280;66057;54.718;18.426;2023-06-05T00:51:06;102175.91;;;7.29;89.13
77106;BME280;66057;54.718;18.426;2023-06-05T00:53:42;102186.28;;;7.20;88.73
77106;BME280;66057;54.718;18.426;2023-06-05T00:56:10;102183.13;;;7.34;88.95
77106;BME280;66057;54.718;18.426;2023-06-05T00:58:36;102184.19;;;7.48;88.74
77106;BME280;66057;54.718;18.426;2023-06-05T01:01:06;102177.00;;;7.66;88.23
77106;BME280;66057;54.718;18.426;2023-06-05T01:03:39;102172.44;;;7.73;88.86
77106;BME280;66057;54.718;18.426;2023-06-05T01:06:08;102182.00;;;7.64;89.46
77106;BME280;66057;54.718;18.426;2023-06-05T01:08:38;102179.44;;;7.31;89.64
77106;BME280;66057;54.718;18.426;2023-06-05T01:13:55;102179.53;;;6.99;89.09
77106;BME280;66057;54.718;18.426;2023-06-05T01:16:29;102176.63;;;6.94;88.83
77106;BME280;66057;54.718;18.426;2023-06-05T01:19:02;102172.63;;;6.98;88.55
77106;BME280;66057;54.718;18.426;2023-06-05T01:21:34;102177.97;;;7.01;88.64
77106;BME280;66057;54.718;18.426;2023-06-05T01:24:03;102178.81;;;7.12;88.44
77106;BME280;66057;54.718;18.426;2023-06-05T01:29:43;102184.84;;;7.45;89.11
77106;BME280;66057;54.718;18.426;2023-06-05T01:32:23;102184.56;;;7.31;90.05
77106;BME280;66057;54.718;18.426;2023-06-05T01:35:03;102180.56;;;7.34;90.29
77106;BME280;66057;54.718;18.426;2023-06-05T01:37:38;102176.66;;;7.28;90.07
77106;BME280;66057;54.718;18.426;2023-06-05T01:40:17;102188.75;;;7.19;89.94
77106;BME280;66057;54.718;18.426;2023-06-05T01:42:46;102187.03;;;7.08;89.19
77106;BME280;66057;54.718;18.426;2023-06-05T01:45:14;102183.22;;;7.03;88.95
77106;BME280;66057;54.718;18.426;2023-06-05T01:47:54;102185.00;;;7.04;89.47
77106;BME280;66057;54.718;18.426;2023-06-05T01:50:25;102182.13;;;7.11;88.81
77106;BME280;66057;54.718;18.426;2023-06-05T01:52:51;102182.63;;;7.17;89.26
77106;BME280;66057;54.718;18.426;2023-06-05T01:55:20;102188.28;;;7.13;89.06
77106;BME280;66057;54.718;18.426;2023-06-05T01:57:51;102187.84;;;7.18;88.63
77106;BME280;66057;54.718;18.426;2023-06-05T02:00:18;102184.97;;;7.25;89.20
77106;BME280;66057;54.718;18.426;2023-06-05T02:02:48;102184.78;;;7.34;89.38
77106;BME280;66057;54.718;18.426;2023-06-05T02:05:15;102187.59;;;7.37;89.83
77106;BME280;66057;54.718;18.426;2023-06-05T02:07:45;102185.25;;;7.40;90.17
77106;BME280;66057;54.718;18.426;2023-06-05T02:10:18;102178.34;;;7.39;90.38
77106;BME280;66057;54.718;18.426;2023-06-05T02:12:45;102174.03;;;7.38;90.74
77106;BME280;66057;54.718;18.426;2023-06-05T02:15:11;102173.22;;;7.39;90.92
77106;BME280;66057;54.718;18.426;2023-06-05T02:17:44;102173.59;;;7.43;90.60
77106;BME280;66057;54.718;18.426;2023-06-05T02:20:15;102170.38;;;7.46;90.37
77106;BME280;66057;54.718;18.426;2023-06-05T02:22:41;102169.63;;;7.47;90.83
77106;BME280;66057;54.718;18.426;2023-06-05T02:25:08;102168.84;;;7.48;90.64
77106;BME280;66057;54.718;18.426;2023-06-05T02:27:37;102172.94;;;7.46;91.55
77106;BME280;66057;54.718;18.426;2023-06-05T02:30:03;102173.06;;;7.48;91.08
77106;BME280;66057;54.718;18.426;2023-06-05T02:32:29;102177.72;;;7.53;90.79
77106;BME280;66057;54.718;18.426;2023-06-05T02:34:57;102173.41;;;7.52;91.23
77106;BME280;66057;54.718;18.426;2023-06-05T02:37:24;102175.78;;;7.39;91.34
77106;BME280;66057;54.718;18.426;2023-06-05T02:39:52;102169.88;;;7.28;90.94
77106;BME280;66057;54.718;18.426;2023-06-05T02:42:18;102166.72;;;7.21;90.51
77106;BME280;66057;54.718;18.426;2023-06-05T02:44:45;102174.09;;;7.28;90.28
77106;BME280;66057;54.718;18.426;2023-06-05T02:47:15;102167.00;;;7.35;90.55
77106;BME280;66057;54.718;18.426;2023-06-05T02:49:47;102166.22;;;7.36;90.38
77106;BME280;66057;54.718;18.426;2023-06-05T02:52:22;102173.72;;;7.45;90.09
77106;BME280;66057;54.718;18.426;2023-06-05T02:54:48;102168.28;;;7.52;89.92
77106;BME280;66057;54.718;18.426;2023-06-05T02:57:14;102173.50;;;7.54;90.50
77106;BME280;66057;54.718;18.426;2023-06-05T02:59:44;102175.16;;;7.53;90.52
77106;BME280;66057;54.718;18.426;2023-06-05T03:02:14;102180.53;;;7.56;90.31
77106;BME280;66057;54.718;18.426;2023-06-05T03:04:40;102170.59;;;7.49;90.58
77106;BME280;66057;54.718;18.426;2023-06-05T03:07:06;102174.25;;;7.41;90.77
77106;BME280;66057;54.718;18.426;2023-06-05T03:09:35;102166.47;;;7.39;91.07
77106;BME280;66057;54.718;18.426;2023-06-05T03:12:02;102177.63;;;7.52;90.73
77106;BME280;66057;54.718;18.426;2023-06-05T03:14:28;102168.97;;;7.61;90.51
77106;BME280;66057;54.718;18.426;2023-06-05T03:16:56;102171.00;;;7.65;90.63
77106;BME280;66057;54.718;18.426;2023-06-05T03:19:24;102171.28;;;7.58;91.42
77106;BME280;66057;54.718;18.426;2023-06-05T03:21:53;102161.84;;;7.57;91.31
77106;BME280;66057;54.718;18.426;2023-06-05T03:24:22;102156.28;;;7.63;90.85
77106;BME280;66057;54.718;18.426;2023-06-05T03:26:50;102156.88;;;7.70;90.88
77106;BME280;66057;54.718;18.426;2023-06-05T03:29:16;102161.56;;;7.87;90.32
77106;BME280;66057;54.718;18.426;2023-06-05T03:31:42;102164.34;;;8.02;90.94
77106;BME280;66057;54.718;18.426;2023-06-05T03:34:08;102158.22;;;8.12;90.82
77106;BME280;66057;54.718;18.426;2023-06-05T03:36:34;102159.47;;;8.17;91.23
77106;BME280;66057;54.718;18.426;2023-06-05T03:39:00;102167.91;;;8.16;91.67
77106;BME280;66057;54.718;18.426;2023-06-05T03:41:27;102168.81;;;8.16;91.41
77106;BME280;66057;54.718;18.426;2023-06-05T03:44:00;102163.63;;;8.38;91.47
77106;BME280;66057;54.718;18.426;2023-06-05T03:46:28;102169.41;;;8.47;91.54
77106;BME280;66057;54.718;18.426;2023-06-05T03:48:55;102167.81;;;8.61;91.09
77106;BME280;66057;54.718;18.426;2023-06-05T03:51:25;102163.22;;;8.68;91.37
77106;BME280;66057;54.718;18.426;2023-06-05T03:53:58;102161.09;;;8.74;91.50
77106;BME280;66057;54.718;18.426;2023-06-05T03:56:26;102159.09;;;8.82;91.27
77106;BME280;66057;54.718;18.426;2023-06-05T03:59:04;102165.06;;;8.94;91.33
77106;BME280;66057;54.718;18.426;2023-06-05T04:01:45;102164.41;;;8.97;91.79
77106;BME280;66057;54.718;18.426;2023-06-05T04:04:14;102159.78;;;9.04;92.17
77106;BME280;66057;54.718;18.426;2023-06-05T04:06:43;102166.56;;;9.15;92.02
77106;BME280;66057;54.718;18.426;2023-06-05T04:09:09;102170.06;;;9.29;91.15
77106;BME280;66057;54.718;18.426;2023-06-05T04:11:42;102161.50;;;9.42;90.73
77106;BME280;66057;54.718;18.426;2023-06-05T04:14:09;102166.38;;;9.50;90.84
77106;BME280;66057;54.718;18.426;2023-06-05T04:16:37;102165.41;;;9.61;90.48
77106;BME280;66057;54.718;18.426;2023-06-05T04:19:12;102159.72;;;9.79;90.49
77106;BME280;66057;54.718;18.426;2023-06-05T04:21:46;102165.56;;;10.02;89.91
77106;BME280;66057;54.718;18.426;2023-06-05T04:24:12;102159.91;;;10.20;88.60
77106;BME280;66057;54.718;18.426;2023-06-05T04:26:40;102165.94;;;10.33;89.02
77106;BME280;66057;54.718;18.426;2023-06-05T04:29:09;102158.97;;;10.45;89.35
77106;BME280;66057;54.718;18.426;2023-06-05T04:31:44;102159.16;;;10.62;90.16
77106;BME280;66057;54.718;18.426;2023-06-05T04:34:19;102158.94;;;10.72;89.54
77106;BME280;66057;54.718;18.426;2023-06-05T04:36:46;102160.81;;;10.87;88.50
77106;BME280;66057;54.718;18.426;2023-06-05T04:39:17;102167.97;;;11.06;85.01
77106;BME280;66057;54.718;18.426;2023-06-05T04:41:45;102158.34;;;11.17;87.11
77106;BME280;66057;54.718;18.426;2023-06-05T04:44:12;102159.22;;;11.32;87.12
77106;BME280;66057;54.718;18.426;2023-06-05T04:46:39;102157.41;;;11.44;87.39
77106;BME280;66057;54.718;18.426;2023-06-05T04:49:12;102155.47;;;11.55;86.86
77106;BME280;66057;54.718;18.426;2023-06-05T04:51:39;102156.75;;;11.76;85.43
77106;BME280;66057;54.718;18.426;2023-06-05T04:54:05;102160.09;;;12.04;78.87
77106;BME280;66057;54.718;18.426;2023-06-05T04:56:32;102159.94;;;12.16;75.12
77106;BME280;66057;54.718;18.426;2023-06-05T04:59:00;102163.03;;;12.25;73.18
77106;BME280;66057;54.718;18.426;2023-06-05T05:01:28;102155.81;;;12.34;74.28
77106;BME280;66057;54.718;18.426;2023-06-05T05:03:57;102152.91;;;12.59;83.06
77106;BME280;66057;54.718;18.426;2023-06-05T05:06:26;102154.44;;;12.72;84.19
77106;BME280;66057;54.718;18.426;2023-06-05T05:08:52;102154.94;;;12.81;83.66
77106;BME280;66057;54.718;18.426;2023-06-05T05:11:18;102156.50;;;12.93;82.36
77106;BME280;66057;54.718;18.426;2023-06-05T05:13:44;102156.66;;;12.96;82.73
77106;BME280;66057;54.718;18.426;2023-06-05T05:16:10;102151.50;;;12.96;83.42
77106;BME280;66057;54.718;18.426;2023-06-05T05:18:40;102144.19;;;13.04;82.97
77106;BME280;66057;54.718;18.426;2023-06-05T05:21:07;102150.47;;;13.09;84.65
77106;BME280;66057;54.718;18.426;2023-06-05T05:23:33;102146.44;;;13.30;85.39
77106;BME280;66057;54.718;18.426;2023-06-05T05:26:00;102158.00;;;13.37;86.31
77106;BME280;66057;54.718;18.426;2023-06-05T05:28:26;102162.06;;;13.49;84.95
77106;BME280;66057;54.718;18.426;2023-06-05T05:30:53;102151.88;;;13.52;84.23
77106;BME280;66057;54.718;18.426;2023-06-05T05:33:42;102162.50;;;13.57;84.61
77106;BME280;66057;54.718;18.426;2023-06-05T05:36:20;102161.97;;;13.64;82.18
77106;BME280;66057;54.718;18.426;2023-06-05T05:38:46;102160.06;;;13.78;79.16
77106;BME280;66057;54.718;18.426;2023-06-05T05:41:12;102158.25;;;13.93;78.93
77106;BME280;66057;54.718;18.426;2023-06-05T05:43:38;102162.41;;;14.07;76.05
77106;BME280;66057;54.718;18.426;2023-06-05T05:46:13;102158.50;;;14.15;73.77
77106;BME280;66057;54.718;18.426;2023-06-05T05:48:51;102159.41;;;14.33;73.49
77106;BME280;66057;54.718;18.426;2023-06-05T05:51:17;102160.75;;;14.43;72.45
77106;BME280;66057;54.718;18.426;2023-06-05T05:53:43;102169.91;;;14.54;71.62
77106;BME280;66057;54.718;18.426;2023-06-05T05:56:09;102163.75;;;14.70;73.34
77106;BME280;66057;54.718;18.426;2023-06-05T05:58:35;102166.03;;;14.81;74.85
77106;BME280;66057;54.718;18.426;2023-06-05T06:01:01;102166.28;;;14.88;76.59
77106;BME280;66057;54.718;18.426;2023-06-05T06:03:29;102177.00;;;14.95;75.51
77106;BME280;66057;54.718;18.426;2023-06-05T06:05:56;102179.00;;;15.01;75.86
77106;BME280;66057;54.718;18.426;2023-06-05T06:08:35;102176.06;;;15.12;77.00
77106;BME280;66057;54.718;18.426;2023-06-05T06:11:06;102181.72;;;15.23;75.26
77106;BME280;66057;54.718;18.426;2023-06-05T06:13:35;102181.16;;;15.30;73.41
77106;BME280;66057;54.718;18.426;2023-06-05T06:16:02;102181.41;;;15.35;67.29
77106;BME280;66057;54.718;18.426;2023-06-05T06:18:28;102175.56;;;15.40;66.77
77106;BME280;66057;54.718;18.426;2023-06-05T06:20:54;102175.28;;;15.52;68.51
77106;BME280;66057;54.718;18.426;2023-06-05T06:23:20;102173.16;;;15.62;68.78
77106;BME280;66057;54.718;18.426;2023-06-05T06:25:47;102169.34;;;15.75;70.08
77106;BME280;66057;54.718;18.426;2023-06-05T06:28:15;102169.66;;;15.83;68.97
77106;BME280;66057;54.718;18.426;2023-06-05T06:30:42;102174.22;;;15.88;68.08
77106;BME280;66057;54.718;18.426;2023-06-05T06:33:12;102167.00;;;16.02;67.76
77106;BME280;66057;54.718;18.426;2023-06-05T06:35:42;102172.41;;;16.06;69.18
77106;BME280;66057;54.718;18.426;2023-06-05T06:38:08;102170.47;;;16.01;70.10
77106;BME280;66057;54.718;18.426;2023-06-05T06:40:38;102173.28;;;16.07;71.19
77106;BME280;66057;54.718;18.426;2023-06-05T06:43:03;102174.53;;;16.17;74.34
77106;BME280;66057;54.718;18.426;2023-06-05T06:45:30;102175.13;;;16.09;74.11
77106;BME280;66057;54.718;18.426;2023-06-05T06:47:56;102185.25;;;16.03;72.94
77106;BME280;66057;54.718;18.426;2023-06-05T06:50:22;102184.00;;;16.14;72.11
77106;BME280;66057;54.718;18.426;2023-06-05T06:52:51;102188.00;;;16.06;74.13
77106;BME280;66057;54.718;18.426;2023-06-05T06:55:17;102189.63;;;16.04;73.38
77106;BME280;66057;54.718;18.426;2023-06-05T06:57:46;102185.63;;;16.12;73.15
77106;BME280;66057;54.718;18.426;2023-06-05T07:00:22;102185.31;;;16.05;75.19
77106;BME280;66057;54.718;18.426;2023-06-05T07:02:51;102187.31;;;16.12;77.42
77106;BME280;66057;54.718;18.426;2023-06-05T07:05:23;102189.66;;;16.27;75.29
77106;BME280;66057;54.718;18.426;2023-06-05T07:07:58;102183.47;;;16.23;74.67
77106;BME280;66057;54.718;18.426;2023-06-05T07:10:29;102193.78;;;16.22;75.27
77106;BME280;66057;54.718;18.426;2023-06-05T07:12:55;102194.84;;;16.27;76.09
77106;BME280;66057;54.718;18.426;2023-06-05T07:15:22;102196.63;;;16.28;76.10
77106;BME280;66057;54.718;18.426;2023-06-05T07:17:51;102197.88;;;16.37;75.12
77106;BME280;66057;54.718;18.426;2023-06-05T07:20:19;102193.19;;;16.49;72.57
77106;BME280;66057;54.718;18.426;2023-06-05T07:22:48;102197.88;;;16.37;75.54
77106;BME280;66057;54.718;18.426;2023-06-05T07:25:14;102193.88;;;16.45;75.39
77106;BME280;66057;54.718;18.426;2023-06-05T07:27:45;102196.66;;;16.50;74.54
77106;BME280;66057;54.718;18.426;2023-06-05T07:30:15;102201.09;;;16.52;74.11
77106;BME280;66057;54.718;18.426;2023-06-05T07:32:41;102196.97;;;16.57;74.68
77106;BME280;66057;54.718;18.426;2023-06-05T07:35:09;102202.81;;;16.73;73.60
77106;BME280;66057;54.718;18.426;2023-06-05T07:37:35;102200.03;;;16.68;72.04
77106;BME280;66057;54.718;18.426;2023-06-05T07:40:02;102204.44;;;16.71;73.09
77106;BME280;66057;54.718;18.426;2023-06-05T07:42:36;102199.56;;;16.78;73.60
77106;BME280;66057;54.718;18.426;2023-06-05T07:45:04;102205.41;;;16.73;75.93
77106;BME280;66057;54.718;18.426;2023-06-05T07:47:33;102203.81;;;16.76;77.56
77106;BME280;66057;54.718;18.426;2023-06-05T07:50:00;102207.75;;;16.67;74.63
77106;BME280;66057;54.718;18.426;2023-06-05T07:52:30;102205.25;;;16.70;75.79
77106;BME280;66057;54.718;18.426;2023-06-05T07:55:00;102210.00;;;16.80;73.25
77106;BME280;66057;54.718;18.426;2023-06-05T07:57:26;102204.44;;;16.93;73.48
77106;BME280;66057;54.718;18.426;2023-06-05T07:59:55;102207.50;;;17.05;71.53
77106;BME280;66057;54.718;18.426;2023-06-05T08:02:21;102207.28;;;16.99;73.71
77106;BME280;66057;54.718;18.426;2023-06-05T08:04:49;102201.16;;;16.97;72.04
77106;BME280;66057;54.718;18.426;2023-06-05T08:07:18;102205.84;;;16.85;74.05
77106;BME280;66057;54.718;18.426;2023-06-05T08:09:44;102206.81;;;16.87;76.11
77106;BME280;66057;54.718;18.426;2023-06-05T08:12:12;102200.91;;;16.91;76.22
77106;BME280;66057;54.718;18.426;2023-06-05T08:14:43;102209.88;;;16.99;74.88
77106;BME280;66057;54.718;18.426;2023-06-05T08:17:10;102217.09;;;17.06;76.33
77106;BME280;66057;54.718;18.426;2023-06-05T08:19:37;102210.22;;;17.08;73.60
77106;BME280;66057;54.718;18.426;2023-06-05T08:22:02;102213.13;;;17.16;75.67
77106;BME280;66057;54.718;18.426;2023-06-05T08:24:31;102212.47;;;17.21;75.96
77106;BME280;66057;54.718;18.426;2023-06-05T08:26:56;102212.66;;;17.27;71.48
77106;BME280;66057;54.718;18.426;2023-06-05T08:29:25;102211.25;;;17.35;74.92
77106;BME280;66057;54.718;18.426;2023-06-05T08:31:51;102206.88;;;17.34;76.61
77106;BME280;66057;54.718;18.426;2023-06-05T08:34:20;102204.69;;;17.47;76.33
77106;BME280;66057;54.718;18.426;2023-06-05T08:36:46;102204.16;;;17.31;75.00
77106;BME280;66057;54.718;18.426;2023-06-05T08:39:17;102204.16;;;17.31;74.80
77106;BME280;66057;54.718;18.426;2023-06-05T08:41:55;102200.84;;;17.35;74.55
77106;BME280;66057;54.718;18.426;2023-06-05T08:44:29;102195.31;;;17.50;76.26
77106;BME280;66057;54.718;18.426;2023-06-05T08:47:02;102201.88;;;17.63;71.76
77106;BME280;66057;54.718;18.426;2023-06-05T08:49:33;102198.13;;;17.56;72.86
77106;BME280;66057;54.718;18.426;2023-06-05T08:52:06;102195.00;;;17.65;77.72
77106;BME280;66057;54.718;18.426;2023-06-05T08:54:37;102194.22;;;17.67;74.10
77106;BME280;66057;54.718;18.426;2023-06-05T08:57:04;102197.41;;;17.60;74.63
77106;BME280;66057;54.718;18.426;2023-06-05T08:59:31;102197.38;;;17.59;75.36
77106;BME280;66057;54.718;18.426;2023-06-05T09:01:59;102201.06;;;17.65;77.14
77106;BME280;66057;54.718;18.426;2023-06-05T09:04:25;102201.06;;;17.65;78.27
77106;BME280;66057;54.718;18.426;2023-06-05T09:07:01;102208.38;;;17.75;80.01
77106;BME280;66057;54.718;18.426;2023-06-05T09:09:31;102203.38;;;17.81;76.62
77106;BME280;66057;54.718;18.426;2023-06-05T09:12:06;102198.81;;;17.74;75.15
77106;BME280;66057;54.718;18.426;2023-06-05T09:14:35;102206.13;;;17.86;75.00
77106;BME280;66057;54.718;18.426;2023-06-05T09:17:02;102203.69;;;17.91;72.29
77106;BME280;66057;54.718;18.426;2023-06-05T09:19:36;102198.69;;;17.97;73.34
77106;BME280;66057;54.718;18.426;2023-06-05T09:22:02;102204.00;;;18.00;75.06
77106;BME280;66057;54.718;18.426;2023-06-05T09:24:31;102203.09;;;17.99;73.93
77106;BME280;66057;54.718;18.426;2023-06-05T09:27:04;102204.16;;;18.04;70.45
77106;BME280;66057;54.718;18.426;2023-06-05T09:29:38;102202.41;;;18.03;73.23
77106;BME280;66057;54.718;18.426;2023-06-05T09:32:17;102202.94;;;17.93;70.48
77106;BME280;66057;54.718;18.426;2023-06-05T09:34:55;102203.69;;;17.91;71.64
77106;BME280;66057;54.718;18.426;2023-06-05T09:37:37;102192.69;;;17.99;74.46
77106;BME280;66057;54.718;18.426;2023-06-05T09:40:04;102202.41;;;18.03;75.41
77106;BME280;66057;54.718;18.426;2023-06-05T09:42:34;102199.22;;;18.12;77.08
77106;BME280;66057;54.718;18.426;2023-06-05T09:45:05;102195.66;;;18.10;74.65
77106;BME280;66057;54.718;18.426;2023-06-05T09:47:31;102195.47;;;18.04;74.15
77106;BME280;66057;54.718;18.426;2023-06-05T09:49:58;102196.50;;;18.09;75.67
77106;BME280;66057;54.718;18.426;2023-06-05T09:52:24;102192.91;;;18.05;78.68
77106;BME280;66057;54.718;18.426;2023-06-05T09:54:52;102190.03;;;18.23;79.38
77106;BME280;66057;54.718;18.426;2023-06-05T09:57:22;102190.28;;;18.30;78.55
77106;BME280;66057;54.718;18.426;2023-06-05T09:59:54;102190.31;;;18.32;74.52
77106;BME280;66057;54.718;18.426;2023-06-05T10:02:25;102183.31;;;18.29;73.67
77106;BME280;66057;54.718;18.426;2023-06-05T10:07:24;102189.34;;;18.28;76.08
77106;BME280;66057;54.718;18.426;2023-06-05T10:09:51;102180.16;;;18.40;76.99
77106;BME280;66057;54.718;18.426;2023-06-05T10:12:17;102180.25;;;18.43;74.00
77106;BME280;66057;54.718;18.426;2023-06-05T10:14:44;102179.69;;;18.53;76.73
77106;BME280;66057;54.718;18.426;2023-06-05T10:17:12;102178.47;;;18.42;73.25
77106;BME280;66057;54.718;18.426;2023-06-05T10:19:46;102183.88;;;18.48;73.64
77106;BME280;66057;54.718;18.426;2023-06-05T10:22:16;102184.78;;;18.48;70.81
77106;BME280;66057;54.718;18.426;2023-06-05T10:24:48;102182.63;;;18.62;70.91
77106;BME280;66057;54.718;18.426;2023-06-05T10:27:37;102184.19;;;18.57;69.29
77106;BME280;66057;54.718;18.426;2023-06-05T10:33:06;102182.81;;;18.68;72.10
77106;BME280;66057;54.718;18.426;2023-06-05T10:35:59;102183.00;;;18.74;69.20
77106;BME280;66057;54.718;18.426;2023-06-05T10:38:51;102176.38;;;18.85;69.08
77106;BME280;66057;54.718;18.426;2023-06-05T10:41:18;102173.19;;;18.94;71.03
77106;BME280;66057;54.718;18.426;2023-06-05T10:43:49;102160.84;;;18.88;69.58
77106;BME280;66057;54.718;18.426;2023-06-05T10:46:33;102170.53;;;18.92;68.12
77106;BME280;66057;54.718;18.426;2023-06-05T10:49:15;102164.31;;;19.18;63.88
77106;BME280;66057;54.718;18.426;2023-06-05T10:51:45;102172.56;;;19.02;64.81
77106;BME280;66057;54.718;18.426;2023-06-05T10:57:01;102167.53;;;19.08;63.26
77106;BME280;66057;54.718;18.426;2023-06-05T10:59:33;102166.53;;;19.03;60.82
77106;BME280;66057;54.718;18.426;2023-06-05T11:07:23;102157.31;;;19.16;58.61
77106;BME280;66057;54.718;18.426;2023-06-05T11:15:16;102169.53;;;19.18;62.83
77106;BME280;66057;54.718;18.426;2023-06-05T11:17:43;102163.50;;;19.20;59.89
77106;BME280;66057;54.718;18.426;2023-06-05T11:30:23;102150.22;;;19.42;57.63
77106;BME280;66057;54.718;18.426;2023-06-05T11:32:52;102157.63;;;19.27;56.71
77106;BME280;66057;54.718;18.426;2023-06-05T11:35:25;102158.56;;;19.30;57.41
77106;BME280;66057;54.718;18.426;2023-06-05T11:38:25;102151.44;;;19.54;57.79
77106;BME280;66057;54.718;18.426;2023-06-05T11:40:53;102145.50;;;19.60;58.56
77106;BME280;66057;54.718;18.426;2023-06-05T11:43:21;102139.38;;;19.92;54.67
77106;BME280;66057;54.718;18.426;2023-06-05T11:45:54;102138.47;;;20.26;55.99
77106;BME280;66057;54.718;18.426;2023-06-05T11:48:23;102141.25;;;20.32;54.38
77106;BME280;66057;54.718;18.426;2023-06-05T11:50:59;102139.66;;;21.18;53.67
77106;BME280;66057;54.718;18.426;2023-06-05T11:53:30;102135.72;;;22.44;51.43
77106;BME280;66057;54.718;18.426;2023-06-05T11:55:57;102134.91;;;23.17;49.47
77106;BME280;66057;54.718;18.426;2023-06-05T11:58:30;102145.81;;;22.78;51.80
77106;BME280;66057;54.718;18.426;2023-06-05T12:01:16;102153.75;;;22.83;50.74
77106;BME280;66057;54.718;18.426;2023-06-05T12:03:48;102135.25;;;22.72;51.10
77106;BME280;66057;54.718;18.426;2023-06-05T12:06:16;102135.81;;;22.51;54.08
77106;BME280;66057;54.718;18.426;2023-06-05T12:08:44;102137.09;;;23.56;52.52
77106;BME280;66057;54.718;18.426;2023-06-05T12:11:27;102133.56;;;23.50;52.52
77106;BME280;66057;54.718;18.426;2023-06-05T12:13:59;102130.03;;;23.51;49.80
77106;BME280;66057;54.718;18.426;2023-06-05T12:19:02;102134.91;;;22.51;52.57
77106;BME280;66057;54.718;18.426;2023-06-05T12:21:36;102131.00;;;22.83;54.78
77106;BME280;66057;54.718;18.426;2023-06-05T12:24:03;102123.81;;;23.39;50.27
77106;BME280;66057;54.718;18.426;2023-06-05T12:26:47;102118.53;;;23.41;52.38
77106;BME280;66057;54.718;18.426;2023-06-05T12:29:13;102122.25;;;23.58;51.34
77106;BME280;66057;54.718;18.426;2023-06-05T12:31:39;102116.13;;;23.61;49.39
77106;BME280;66057;54.718;18.426;2023-06-05T12:34:06;102115.44;;;23.78;50.36
77106;BME280;66057;54.718;18.426;2023-06-05T12:36:39;102117.56;;;24.28;47.55
77106;BME280;66057;54.718;18.426;2023-06-05T12:39:15;102116.88;;;24.65;44.96
77106;BME280;66057;54.718;18.426;2023-06-05T12:41:42;102111.84;;;25.11;50.15
77106;BME280;66057;54.718;18.426;2023-06-05T12:44:10;102108.91;;;24.47;53.54
77106;BME280;66057;54.718;18.426;2023-06-05T12:46:36;102114.25;;;24.65;52.44
77106;BME280;66057;54.718;18.426;2023-06-05T12:49:04;102100.44;;;25.06;51.58
77106;BME280;66057;54.718;18.426;2023-06-05T12:51:31;102097.00;;;26.10;48.78
77106;BME280;66057;54.718;18.426;2023-06-05T12:53:57;102099.66;;;25.92;47.61
77106;BME280;66057;54.718;18.426;2023-06-05T12:56:24;102102.25;;;26.18;47.95
77106;BME280;66057;54.718;18.426;2023-06-05T12:58:56;102092.56;;;26.45;46.43
77106;BME280;66057;54.718;18.426;2023-06-05T13:01:23;102094.34;;;25.36;48.98
77106;BME280;66057;54.718;18.426;2023-06-05T13:03:51;102095.19;;;25.29;50.00
77106;BME280;66057;54.718;18.426;2023-06-05T13:06:18;102088.09;;;24.88;51.05
77106;BME280;66057;54.718;18.426;2023-06-05T13:08:45;102079.38;;;25.10;50.69
77106;BME280;66057;54.718;18.426;2023-06-05T13:11:13;102082.06;;;25.36;49.46
77106;BME280;66057;54.718;18.426;2023-06-05T13:13:45;102083.59;;;24.67;49.51
77106;BME280;66057;54.718;18.426;2023-06-05T13:16:11;102082.03;;;25.07;49.56
77106;BME280;66057;54.718;18.426;2023-06-05T13:18:37;102084.50;;;24.80;49.27
77106;BME280;66057;54.718;18.426;2023-06-05T13:21:05;102078.47;;;24.99;49.94
77106;BME280;66057;54.718;18.426;2023-06-05T13:23:33;102080.22;;;24.91;49.10
77106;BME280;66057;54.718;18.426;2023-06-05T13:26:02;102074.00;;;24.85;48.07
77106;BME280;66057;54.718;18.426;2023-06-05T13:28:29;102080.09;;;24.71;48.17
77106;BME280;66057;54.718;18.426;2023-06-05T13:30:55;102085.47;;;24.88;47.78
77106;BME280;66057;54.718;18.426;2023-06-05T13:33:22;102075.81;;;24.95;48.73